createdAt,value
2018-10-16T00:06:02.351Z,0.00
2018-10-16T00:16:02.382Z,0.00
2018-10-16T00:26:02.363Z,0.00
2018-10-16T00:36:02.413Z,0.00
2018-10-16T00:46:02.340Z,0.00
2018-10-16T00:56:02.526Z,0.05
2018-10-16T01:06:02.406Z,0.31
2018-10-16T01:16:02.344Z,0.50
2018-10-16T01:26:02.395Z,0.05
2018-10-16T01:36:02.410Z,0.00
2018-10-16T01:46:02.333Z,0.00
2018-10-16T01:56:02.302Z,0.00
2018-10-16T02:06:02.415Z,0.00
2018-10-16T02:16:02.313Z,0.00
2018-10-16T02:26:02.353Z,0.00
2018-10-16T02:36:02.410Z,0.00
2018-10-16T02:46:02.389Z,0.00
2018-10-16T02:56:02.357Z,0.00
2018-10-16T03:06:02.535Z,0.00
2018-10-16T03:16:02.391Z,0.00
2018-10-16T03:26:02.348Z,0.00
2018-10-16T03:36:02.540Z,0.00
2018-10-16T03:46:02.325Z,0.00
2018-10-16T03:56:02.337Z,0.00
2018-10-16T04:06:02.343Z,0.00
2018-10-16T04:16:02.353Z,0.00
2018-10-16T04:26:02.291Z,0.00
2018-10-16T04:36:02.302Z,0.00
2018-10-16T04:46:02.657Z,0.00
2018-10-16T04:56:02.349Z,0.00
2018-10-16T05:06:02.390Z,0.00
2018-10-16T05:16:02.362Z,0.00
2018-10-16T05:26:02.401Z,0.00
2018-10-16T05:36:02.336Z,0.00
2018-10-16T05:46:02.301Z,0.00
2018-10-16T05:56:02.286Z,0.00
2018-10-16T06:06:02.310Z,0.00
2018-10-16T06:16:02.416Z,0.00
2018-10-16T06:26:02.331Z,0.00
2018-10-16T06:36:02.405Z,0.00
2018-10-16T06:46:02.397Z,0.00
2018-10-16T06:56:03.784Z,0.00
2018-10-16T07:06:02.401Z,0.02
2018-10-16T07:16:02.491Z,0.00
2018-10-16T07:26:02.308Z,0.05
2018-10-16T07:36:02.339Z,0.64
2018-10-16T07:46:02.377Z,0.21
2018-10-16T07:56:03.402Z,0.18
2018-10-16T08:06:02.320Z,0.25
2018-10-16T08:16:02.624Z,0.06
2018-10-16T08:26:02.389Z,0.25
2018-10-16T08:36:02.416Z,0.38
2018-10-16T08:46:02.273Z,0.39
2018-10-16T08:56:02.339Z,0.72
2018-10-16T09:06:02.465Z,0.75
2018-10-16T09:16:03.039Z,0.82
2018-10-16T09:26:02.329Z,0.38
2018-10-16T09:36:02.582Z,0.40
2018-10-16T09:46:02.453Z,0.47
2018-10-16T09:56:02.453Z,0.40
2018-10-16T10:06:02.526Z,0.24
2018-10-16T10:16:02.366Z,0.29
2018-10-16T10:26:02.709Z,0.44
2018-10-16T10:36:02.430Z,0.51
2018-10-16T10:46:02.591Z,0.71
2018-10-16T10:56:02.427Z,0.40
2018-10-16T11:06:02.399Z,0.41
2018-10-16T11:16:02.475Z,0.82
2018-10-16T11:26:02.415Z,0.36
2018-10-16T11:36:02.488Z,1.00
2018-10-16T11:46:03.209Z,1.27
2018-10-16T11:56:02.476Z,1.14
2018-10-16T12:06:02.458Z,1.24
2018-10-16T12:16:02.611Z,0.96
2018-10-16T12:26:03.422Z,0.56
2018-10-16T12:36:02.489Z,0.48
2018-10-16T12:46:02.614Z,0.74
2018-10-16T12:56:02.656Z,0.84
2018-10-16T13:06:02.455Z,1.56
2018-10-16T13:16:02.889Z,1.20
2018-10-16T13:26:02.619Z,1.39
2018-10-16T13:36:02.534Z,1.55
2018-10-16T13:46:02.493Z,2.09
2018-10-16T13:56:02.516Z,1.64
2018-10-16T14:06:02.514Z,1.49
2018-10-16T14:16:02.777Z,2.70
2018-10-16T14:26:02.645Z,1.75
2018-10-16T14:36:03.038Z,1.47
2018-10-16T14:46:05.318Z,1.51
2018-10-16T14:56:02.476Z,1.70
2018-10-16T15:06:02.533Z,2.13
2018-10-16T15:16:02.669Z,1.60
2018-10-16T15:26:02.505Z,1.87
2018-10-16T15:36:02.627Z,1.51
2018-10-16T15:46:02.817Z,1.39
2018-10-16T15:56:02.630Z,0.84
2018-10-16T16:06:02.503Z,1.53
2018-10-16T16:16:02.537Z,1.67
2018-10-16T16:26:02.754Z,1.91
2018-10-16T16:36:02.559Z,1.80
2018-10-16T16:46:02.560Z,1.66
2018-10-16T16:56:02.606Z,1.34
2018-10-16T17:06:03.131Z,0.64
2018-10-16T17:16:02.572Z,0.05
2018-10-16T17:26:02.782Z,0.00
2018-10-16T17:36:02.479Z,0.02
2018-10-16T17:46:02.531Z,0.11
2018-10-16T17:56:02.677Z,0.13
2018-10-16T18:06:02.531Z,0.46
2018-10-16T18:16:04.056Z,0.24
2018-10-16T18:26:02.578Z,0.13
2018-10-16T18:36:02.645Z,0.02
2018-10-16T18:46:02.544Z,0.05
2018-10-16T18:56:02.572Z,0.01
2018-10-16T19:06:02.568Z,0.02
2018-10-16T19:16:04.131Z,0.07
2018-10-16T19:26:02.536Z,0.00
2018-10-16T19:36:02.567Z,0.00
2018-10-16T19:46:02.560Z,0.00
2018-10-16T19:56:03.449Z,0.02
2018-10-16T20:06:02.487Z,0.00
2018-10-16T20:16:02.557Z,0.00
2018-10-16T20:26:02.483Z,0.00
2018-10-16T20:36:02.499Z,0.00
2018-10-16T20:46:02.594Z,0.01
2018-10-16T20:56:02.588Z,0.00
2018-10-16T21:06:02.711Z,0.00
2018-10-16T21:16:02.561Z,0.00
2018-10-16T21:26:02.873Z,0.00
2018-10-16T21:36:02.608Z,0.00
2018-10-16T21:46:02.673Z,0.00
2018-10-16T21:56:02.600Z,0.00
2018-10-16T22:06:02.588Z,0.01
2018-10-16T22:16:02.565Z,0.11
2018-10-16T22:26:02.646Z,0.01
2018-10-16T22:36:02.533Z,0.03
2018-10-16T22:46:03.328Z,0.01
2018-10-16T22:56:02.733Z,0.01
2018-10-16T23:06:02.732Z,0.00
2018-10-16T23:16:02.719Z,0.00
2018-10-16T23:26:02.665Z,0.00
2018-10-16T23:36:02.652Z,0.02
2018-10-16T23:46:02.671Z,0.00
2018-10-16T23:56:02.523Z,0.00
